sensor_id;sensor_type;location;lat;lon;timestamp;temperature;humidity
65239;SHT30;51827;51.186;6.926;2023-04-15T00:00:53;19.83;45.79
65239;SHT30;51827;51.186;6.926;2023-04-15T00:01:56;19.83;45.74
65239;SHT30;51827;51.186;6.926;2023-04-15T00:02:57;19.83;45.79
65239;SHT30;51827;51.186;6.926;2023-04-15T00:03:57;19.84;45.77
65239;SHT30;51827;51.186;6.926;2023-04-15T00:04:57;19.81;45.80
65239;SHT30;51827;51.186;6.926;2023-04-15T00:05:57;19.83;45.80
65239;SHT30;51827;51.186;6.926;2023-04-15T00:06:58;19.85;45.80
65239;SHT30;51827;51.186;6.926;2023-04-15T00:07:59;19.85;45.79
65239;SHT30;51827;51.186;6.926;2023-04-15T00:08:59;19.81;45.77
65239;SHT30;51827;51.186;6.926;2023-04-15T00:10:00;19.84;45.79
65239;SHT30;51827;51.186;6.926;2023-04-15T00:11:01;19.84;45.75
65239;SHT30;51827;51.186;6.926;2023-04-15T00:12:01;19.84;45.77
65239;SHT30;51827;51.186;6.926;2023-04-15T00:13:01;19.83;45.79
65239;SHT30;51827;51.186;6.926;2023-04-15T00:14:01;19.81;45.78
65239;SHT30;51827;51.186;6.926;2023-04-15T00:15:02;19.83;45.78
65239;SHT30;51827;51.186;6.926;2023-04-15T00:16:02;19.81;45.80
65239;SHT30;51827;51.186;6.926;2023-04-15T00:17:03;19.84;45.81
65239;SHT30;51827;51.186;6.926;2023-04-15T00:18:03;19.81;45.77
65239;SHT30;51827;51.186;6.926;2023-04-15T00:19:04;19.80;45.81
65239;SHT30;51827;51.186;6.926;2023-04-15T00:20:05;19.83;45.78
65239;SHT30;51827;51.186;6.926;2023-04-15T00:21:05;19.83;45.85
65239;SHT30;51827;51.186;6.926;2023-04-15T00:22:05;19.83;45.82
65239;SHT30;51827;51.186;6.926;2023-04-15T00:23:05;19.83;45.85
65239;SHT30;51827;51.186;6.926;2023-04-15T00:24:06;19.80;45.81
65239;SHT30;51827;51.186;6.926;2023-04-15T00:25:06;19.81;45.87
65239;SHT30;51827;51.186;6.926;2023-04-15T00:26:06;19.80;45.86
65239;SHT30;51827;51.186;6.926;2023-04-15T00:27:07;19.80;45.85
65239;SHT30;51827;51.186;6.926;2023-04-15T00:28:07;19.81;45.86
65239;SHT30;51827;51.186;6.926;2023-04-15T00:29:07;19.83;45.84
65239;SHT30;51827;51.186;6.926;2023-04-15T00:30:08;19.78;45.86
65239;SHT30;51827;51.186;6.926;2023-04-15T00:31:08;19.81;45.88
65239;SHT30;51827;51.186;6.926;2023-04-15T00:32:08;19.80;45.87
65239;SHT30;51827;51.186;6.926;2023-04-15T00:33:09;19.78;45.89
65239;SHT30;51827;51.186;6.926;2023-04-15T00:34:09;19.80;45.89
65239;SHT30;51827;51.186;6.926;2023-04-15T00:35:10;19.78;45.86
65239;SHT30;51827;51.186;6.926;2023-04-15T00:36:10;19.80;45.88
65239;SHT30;51827;51.186;6.926;2023-04-15T00:37:10;19.80;45.91
65239;SHT30;51827;51.186;6.926;2023-04-15T00:38:11;19.77;45.93
65239;SHT30;51827;51.186;6.926;2023-04-15T00:39:11;19.80;45.93
65239;SHT30;51827;51.186;6.926;2023-04-15T00:40:12;19.80;45.91
65239;SHT30;51827;51.186;6.926;2023-04-15T00:41:12;19.81;45.89
65239;SHT30;51827;51.186;6.926;2023-04-15T00:42:13;19.81;45.88
65239;SHT30;51827;51.186;6.926;2023-04-15T00:43:13;19.77;45.91
65239;SHT30;51827;51.186;6.926;2023-04-15T00:44:13;19.77;45.87
65239;SHT30;51827;51.186;6.926;2023-04-15T00:45:13;19.78;45.92
65239;SHT30;51827;51.186;6.926;2023-04-15T00:46:16;19.77;45.89
65239;SHT30;51827;51.186;6.926;2023-04-15T00:47:17;19.78;45.92
65239;SHT30;51827;51.186;6.926;2023-04-15T00:48:17;19.75;45.89
65239;SHT30;51827;51.186;6.926;2023-04-15T00:49:18;19.78;45.89
65239;SHT30;51827;51.186;6.926;2023-04-15T00:50:18;19.78;45.90
65239;SHT30;51827;51.186;6.926;2023-04-15T00:51:19;19.77;45.92
65239;SHT30;51827;51.186;6.926;2023-04-15T00:52:19;19.75;45.96
65239;SHT30;51827;51.186;6.926;2023-04-15T00:53:19;19.77;45.94
65239;SHT30;51827;51.186;6.926;2023-04-15T00:54:19;19.78;45.95
65239;SHT30;51827;51.186;6.926;2023-04-15T00:55:20;19.75;45.90
65239;SHT30;51827;51.186;6.926;2023-04-15T00:56:20;19.75;45.94
65239;SHT30;51827;51.186;6.926;2023-04-15T00:57:21;19.75;45.94
65239;SHT30;51827;51.186;6.926;2023-04-15T00:58:22;19.75;45.91
65239;SHT30;51827;51.186;6.926;2023-04-15T00:59:22;19.78;45.94
65239;SHT30;51827;51.186;6.926;2023-04-15T01:00:23;19.75;45.95
65239;SHT30;51827;51.186;6.926;2023-04-15T01:01:24;19.75;45.91
65239;SHT30;51827;51.186;6.926;2023-04-15T01:02:25;19.77;45.92
65239;SHT30;51827;51.186;6.926;2023-04-15T01:03:25;19.74;45.95
65239;SHT30;51827;51.186;6.926;2023-04-15T01:04:25;19.75;45.94
65239;SHT30;51827;51.186;6.926;2023-04-15T01:05:26;19.75;45.95
65239;SHT30;51827;51.186;6.926;2023-04-15T01:06:27;19.73;45.96
65239;SHT30;51827;51.186;6.926;2023-04-15T01:07:27;19.74;45.97
65239;SHT30;51827;51.186;6.926;2023-04-15T01:08:27;19.74;45.98
65239;SHT30;51827;51.186;6.926;2023-04-15T01:09:28;19.73;45.95
65239;SHT30;51827;51.186;6.926;2023-04-15T01:10:28;19.73;45.96
65239;SHT30;51827;51.186;6.926;2023-04-15T01:11:31;19.75;45.98
65239;SHT30;51827;51.186;6.926;2023-04-15T01:12:31;19.75;45.96
65239;SHT30;51827;51.186;6.926;2023-04-15T01:13:33;19.75;46.01
65239;SHT30;51827;51.186;6.926;2023-04-15T01:14:33;19.77;45.98
65239;SHT30;51827;51.186;6.926;2023-04-15T01:15:34;19.73;45.97
65239;SHT30;51827;51.186;6.926;2023-04-15T01:16:36;19.71;45.98
65239;SHT30;51827;51.186;6.926;2023-04-15T01:17:38;19.75;46.02
65239;SHT30;51827;51.186;6.926;2023-04-15T01:18:38;19.73;45.99
65239;SHT30;51827;51.186;6.926;2023-04-15T01:19:39;19.71;46.02
65239;SHT30;51827;51.186;6.926;2023-04-15T01:20:39;19.71;46.05
65239;SHT30;51827;51.186;6.926;2023-04-15T01:21:39;19.71;45.98
65239;SHT30;51827;51.186;6.926;2023-04-15T01:22:40;19.71;45.98
65239;SHT30;51827;51.186;6.926;2023-04-15T01:23:42;19.70;46.03
65239;SHT30;51827;51.186;6.926;2023-04-15T01:24:55;19.71;46.01
65239;SHT30;51827;51.186;6.926;2023-04-15T01:25:58;19.73;46.01
65239;SHT30;51827;51.186;6.926;2023-04-15T01:26:58;19.73;45.99
65239;SHT30;51827;51.186;6.926;2023-04-15T01:27:59;19.71;46.03
65239;SHT30;51827;51.186;6.926;2023-04-15T01:29:00;19.73;45.95
65239;SHT30;51827;51.186;6.926;2023-04-15T01:30:00;19.71;45.99
65239;SHT30;51827;51.186;6.926;2023-04-15T01:31:13;19.71;46.00
65239;SHT30;51827;51.186;6.926;2023-04-15T01:32:14;19.69;46.04
65239;SHT30;51827;51.186;6.926;2023-04-15T01:33:14;19.71;46.00
65239;SHT30;51827;51.186;6.926;2023-04-15T01:34:14;19.70;46.04
65239;SHT30;51827;51.186;6.926;2023-04-15T01:35:14;19.71;46.02
65239;SHT30;51827;51.186;6.926;2023-04-15T01:36:15;19.69;45.97
65239;SHT30;51827;51.186;6.926;2023-04-15T01:37:15;19.70;45.98
65239;SHT30;51827;51.186;6.926;2023-04-15T01:38:15;19.69;46.04
65239;SHT30;51827;51.186;6.926;2023-04-15T01:39:16;19.70;46.00
65239;SHT30;51827;51.186;6.926;2023-04-15T01:40:16;19.69;46.01
65239;SHT30;51827;51.186;6.926;2023-04-15T01:41:21;19.67;45.99
65239;SHT30;51827;51.186;6.926;2023-04-15T01:42:21;19.67;46.04
65239;SHT30;51827;51.186;6.926;2023-04-15T01:43:21;19.67;46.09
65239;SHT30;51827;51.186;6.926;2023-04-15T01:44:21;19.71;46.04
65239;SHT30;51827;51.186;6.926;2023-04-15T01:45:22;19.67;46.04
65239;SHT30;51827;51.186;6.926;2023-04-15T01:46:22;19.70;46.05
65239;SHT30;51827;51.186;6.926;2023-04-15T01:47:22;19.69;46.05
65239;SHT30;51827;51.186;6.926;2023-04-15T01:48:22;19.70;46.07
65239;SHT30;51827;51.186;6.926;2023-04-15T01:49:23;19.69;46.06
65239;SHT30;51827;51.186;6.926;2023-04-15T01:50:23;19.67;46.08
65239;SHT30;51827;51.186;6.926;2023-04-15T01:51:23;19.70;46.04
65239;SHT30;51827;51.186;6.926;2023-04-15T01:52:23;19.69;46.04
65239;SHT30;51827;51.186;6.926;2023-04-15T01:53:24;19.69;46.04
65239;SHT30;51827;51.186;6.926;2023-04-15T01:54:25;19.70;46.03
65239;SHT30;51827;51.186;6.926;2023-04-15T01:55:25;19.69;46.06
65239;SHT30;51827;51.186;6.926;2023-04-15T01:56:25;19.69;46.07
65239;SHT30;51827;51.186;6.926;2023-04-15T01:57:25;19.69;46.10
65239;SHT30;51827;51.186;6.926;2023-04-15T01:58:25;19.69;46.04
65239;SHT30;51827;51.186;6.926;2023-04-15T01:59:26;19.69;46.04
65239;SHT30;51827;51.186;6.926;2023-04-15T02:00:26;19.69;46.05
65239;SHT30;51827;51.186;6.926;2023-04-15T02:01:26;19.69;46.06
65239;SHT30;51827;51.186;6.926;2023-04-15T02:02:27;19.70;46.08
65239;SHT30;51827;51.186;6.926;2023-04-15T02:03:27;19.66;46.07
65239;SHT30;51827;51.186;6.926;2023-04-15T02:04:28;19.69;46.05
65239;SHT30;51827;51.186;6.926;2023-04-15T02:05:28;19.67;46.09
65239;SHT30;51827;51.186;6.926;2023-04-15T02:06:28;19.69;46.07
65239;SHT30;51827;51.186;6.926;2023-04-15T02:07:28;19.69;46.11
65239;SHT30;51827;51.186;6.926;2023-04-15T02:08:29;19.67;46.08
65239;SHT30;51827;51.186;6.926;2023-04-15T02:09:29;19.69;46.07
65239;SHT30;51827;51.186;6.926;2023-04-15T02:10:29;19.67;46.04
65239;SHT30;51827;51.186;6.926;2023-04-15T02:11:29;19.69;46.10
65239;SHT30;51827;51.186;6.926;2023-04-15T02:12:30;19.67;46.07
65239;SHT30;51827;51.186;6.926;2023-04-15T02:13:30;19.67;46.12
65239;SHT30;51827;51.186;6.926;2023-04-15T02:14:30;19.67;46.12
65239;SHT30;51827;51.186;6.926;2023-04-15T02:15:30;19.66;46.14
65239;SHT30;51827;51.186;6.926;2023-04-15T02:16:31;19.66;46.12
65239;SHT30;51827;51.186;6.926;2023-04-15T02:17:38;19.67;46.14
65239;SHT30;51827;51.186;6.926;2023-04-15T02:18:38;19.66;46.14
65239;SHT30;51827;51.186;6.926;2023-04-15T02:19:38;19.66;46.10
65239;SHT30;51827;51.186;6.926;2023-04-15T02:20:38;19.67;46.13
65239;SHT30;51827;51.186;6.926;2023-04-15T02:21:39;19.67;46.11
65239;SHT30;51827;51.186;6.926;2023-04-15T02:22:39;19.66;46.13
65239;SHT30;51827;51.186;6.926;2023-04-15T02:23:39;19.67;46.12
65239;SHT30;51827;51.186;6.926;2023-04-15T02:24:39;19.67;46.14
65239;SHT30;51827;51.186;6.926;2023-04-15T02:25:40;19.67;46.14
65239;SHT30;51827;51.186;6.926;2023-04-15T02:26:40;19.67;46.14
65239;SHT30;51827;51.186;6.926;2023-04-15T02:27:40;19.67;46.18
65239;SHT30;51827;51.186;6.926;2023-04-15T02:28:41;19.63;46.14
65239;SHT30;51827;51.186;6.926;2023-04-15T02:29:42;19.66;46.14
65239;SHT30;51827;51.186;6.926;2023-04-15T02:30:42;19.67;46.18
65239;SHT30;51827;51.186;6.926;2023-04-15T02:31:42;19.66;46.21
65239;SHT30;51827;51.186;6.926;2023-04-15T02:32:43;19.64;46.15
65239;SHT30;51827;51.186;6.926;2023-04-15T02:33:43;19.64;46.15
65239;SHT30;51827;51.186;6.926;2023-04-15T02:34:43;19.62;46.14
65239;SHT30;51827;51.186;6.926;2023-04-15T02:35:43;19.63;46.15
65239;SHT30;51827;51.186;6.926;2023-04-15T02:36:44;19.64;46.17
65239;SHT30;51827;51.186;6.926;2023-04-15T02:37:44;19.63;46.13
65239;SHT30;51827;51.186;6.926;2023-04-15T02:38:44;19.63;46.16
65239;SHT30;51827;51.186;6.926;2023-04-15T02:39:45;19.62;46.18
65239;SHT30;51827;51.186;6.926;2023-04-15T02:40:46;19.62;46.19
65239;SHT30;51827;51.186;6.926;2023-04-15T02:41:46;19.63;46.18
65239;SHT30;51827;51.186;6.926;2023-04-15T02:42:46;19.62;46.16
65239;SHT30;51827;51.186;6.926;2023-04-15T02:43:46;19.63;46.16
65239;SHT30;51827;51.186;6.926;2023-04-15T02:44:47;19.62;46.15
65239;SHT30;51827;51.186;6.926;2023-04-15T02:45:47;19.62;46.18
65239;SHT30;51827;51.186;6.926;2023-04-15T02:46:47;19.62;46.14
65239;SHT30;51827;51.186;6.926;2023-04-15T02:47:47;19.62;46.15
65239;SHT30;51827;51.186;6.926;2023-04-15T02:48:48;19.64;46.18
65239;SHT30;51827;51.186;6.926;2023-04-15T02:49:49;19.63;46.15
65239;SHT30;51827;51.186;6.926;2023-04-15T02:50:49;19.63;46.14
65239;SHT30;51827;51.186;6.926;2023-04-15T02:51:49;19.60;46.20
65239;SHT30;51827;51.186;6.926;2023-04-15T02:52:50;19.62;46.19
65239;SHT30;51827;51.186;6.926;2023-04-15T02:53:50;19.63;46.16
65239;SHT30;51827;51.186;6.926;2023-04-15T02:54:50;19.59;46.19
65239;SHT30;51827;51.186;6.926;2023-04-15T02:55:50;19.60;46.23
65239;SHT30;51827;51.186;6.926;2023-04-15T02:56:51;19.62;46.17
65239;SHT30;51827;51.186;6.926;2023-04-15T02:57:51;19.62;46.21
65239;SHT30;51827;51.186;6.926;2023-04-15T02:58:51;19.63;46.20
65239;SHT30;51827;51.186;6.926;2023-04-15T02:59:51;19.59;46.20
65239;SHT30;51827;51.186;6.926;2023-04-15T03:00:52;19.62;46.18
65239;SHT30;51827;51.186;6.926;2023-04-15T03:01:52;19.59;46.21
65239;SHT30;51827;51.186;6.926;2023-04-15T03:03:04;19.60;46.21
65239;SHT30;51827;51.186;6.926;2023-04-15T03:04:04;19.60;46.21
65239;SHT30;51827;51.186;6.926;2023-04-15T03:05:05;19.60;46.22
65239;SHT30;51827;51.186;6.926;2023-04-15T03:06:05;19.59;46.24
65239;SHT30;51827;51.186;6.926;2023-04-15T03:07:06;19.59;46.26
65239;SHT30;51827;51.186;6.926;2023-04-15T03:08:06;19.60;46.26
65239;SHT30;51827;51.186;6.926;2023-04-15T03:09:06;19.56;46.27
65239;SHT30;51827;51.186;6.926;2023-04-15T03:10:07;19.60;46.26
65239;SHT30;51827;51.186;6.926;2023-04-15T03:11:07;19.59;46.17
65239;SHT30;51827;51.186;6.926;2023-04-15T03:12:07;19.57;46.27
65239;SHT30;51827;51.186;6.926;2023-04-15T03:13:08;19.57;46.23
65239;SHT30;51827;51.186;6.926;2023-04-15T03:14:08;19.59;46.23
65239;SHT30;51827;51.186;6.926;2023-04-15T03:15:09;19.57;46.25
65239;SHT30;51827;51.186;6.926;2023-04-15T03:16:09;19.56;46.23
65239;SHT30;51827;51.186;6.926;2023-04-15T03:17:09;19.57;46.23
65239;SHT30;51827;51.186;6.926;2023-04-15T03:18:10;19.59;46.18
65239;SHT30;51827;51.186;6.926;2023-04-15T03:19:10;19.57;46.23
65239;SHT30;51827;51.186;6.926;2023-04-15T03:20:10;19.57;46.20
65239;SHT30;51827;51.186;6.926;2023-04-15T03:21:10;19.60;46.20
65239;SHT30;51827;51.186;6.926;2023-04-15T03:22:11;19.56;46.20
65239;SHT30;51827;51.186;6.926;2023-04-15T03:23:11;19.59;46.18
65239;SHT30;51827;51.186;6.926;2023-04-15T03:24:11;19.59;46.17
65239;SHT30;51827;51.186;6.926;2023-04-15T03:25:11;19.59;46.20
65239;SHT30;51827;51.186;6.926;2023-04-15T03:26:23;19.60;46.22
65239;SHT30;51827;51.186;6.926;2023-04-15T03:27:24;19.57;46.21
65239;SHT30;51827;51.186;6.926;2023-04-15T03:28:24;19.56;46.22
65239;SHT30;51827;51.186;6.926;2023-04-15T03:29:24;19.59;46.23
65239;SHT30;51827;51.186;6.926;2023-04-15T03:30:25;19.56;46.25
65239;SHT30;51827;51.186;6.926;2023-04-15T03:31:25;19.56;46.20
65239;SHT30;51827;51.186;6.926;2023-04-15T03:32:25;19.54;46.20
65239;SHT30;51827;51.186;6.926;2023-04-15T03:33:25;19.56;46.28
65239;SHT30;51827;51.186;6.926;2023-04-15T03:34:26;19.56;46.23
65239;SHT30;51827;51.186;6.926;2023-04-15T03:35:26;19.56;46.23
65239;SHT30;51827;51.186;6.926;2023-04-15T03:36:28;19.54;46.28
65239;SHT30;51827;51.186;6.926;2023-04-15T03:37:28;19.56;46.23
65239;SHT30;51827;51.186;6.926;2023-04-15T03:38:28;19.56;46.18
65239;SHT30;51827;51.186;6.926;2023-04-15T03:39:29;19.53;46.22
65239;SHT30;51827;51.186;6.926;2023-04-15T03:40:29;19.56;46.18
65239;SHT30;51827;51.186;6.926;2023-04-15T03:41:29;19.54;46.24
65239;SHT30;51827;51.186;6.926;2023-04-15T03:42:29;19.56;46.22
65239;SHT30;51827;51.186;6.926;2023-04-15T03:43:30;19.54;46.19
65239;SHT30;51827;51.186;6.926;2023-04-15T03:44:30;19.56;46.20
65239;SHT30;51827;51.186;6.926;2023-04-15T03:45:30;19.54;46.24
65239;SHT30;51827;51.186;6.926;2023-04-15T03:46:30;19.54;46.28
65239;SHT30;51827;51.186;6.926;2023-04-15T03:47:31;19.50;46.24
65239;SHT30;51827;51.186;6.926;2023-04-15T03:48:31;19.56;46.25
65239;SHT30;51827;51.186;6.926;2023-04-15T03:49:31;19.54;46.30
65239;SHT30;51827;51.186;6.926;2023-04-15T03:50:32;19.53;46.21
65239;SHT30;51827;51.186;6.926;2023-04-15T03:51:32;19.53;46.23
65239;SHT30;51827;51.186;6.926;2023-04-15T03:52:32;19.52;46.23
65239;SHT30;51827;51.186;6.926;2023-04-15T03:53:32;19.53;46.23
65239;SHT30;51827;51.186;6.926;2023-04-15T03:54:33;19.53;46.23
65239;SHT30;51827;51.186;6.926;2023-04-15T03:55:33;19.56;46.23
65239;SHT30;51827;51.186;6.926;2023-04-15T03:56:33;19.54;46.21
65239;SHT30;51827;51.186;6.926;2023-04-15T03:57:33;19.53;46.21
65239;SHT30;51827;51.186;6.926;2023-04-15T03:58:34;19.53;46.26
65239;SHT30;51827;51.186;6.926;2023-04-15T03:59:34;19.54;46.22
65239;SHT30;51827;51.186;6.926;2023-04-15T04:00:34;19.54;46.25
65239;SHT30;51827;51.186;6.926;2023-04-15T04:01:34;19.53;46.24
65239;SHT30;51827;51.186;6.926;2023-04-15T04:02:35;19.52;46.20
65239;SHT30;51827;51.186;6.926;2023-04-15T04:03:35;19.53;46.24
65239;SHT30;51827;51.186;6.926;2023-04-15T04:04:35;19.53;46.23
65239;SHT30;51827;51.186;6.926;2023-04-15T04:05:36;19.52;46.23
65239;SHT30;51827;51.186;6.926;2023-04-15T04:06:36;19.54;46.24
65239;SHT30;51827;51.186;6.926;2023-04-15T04:07:36;19.52;46.19
65239;SHT30;51827;51.186;6.926;2023-04-15T04:08:36;19.54;46.21
65239;SHT30;51827;51.186;6.926;2023-04-15T04:09:37;19.52;46.21
65239;SHT30;51827;51.186;6.926;2023-04-15T04:10:37;19.50;46.21
65239;SHT30;51827;51.186;6.926;2023-04-15T04:11:37;19.50;46.20
65239;SHT30;51827;51.186;6.926;2023-04-15T04:12:37;19.50;46.24
65239;SHT30;51827;51.186;6.926;2023-04-15T04:13:38;19.50;46.26
65239;SHT30;51827;51.186;6.926;2023-04-15T04:14:38;19.53;46.22
65239;SHT30;51827;51.186;6.926;2023-04-15T04:15:38;19.53;46.21
65239;SHT30;51827;51.186;6.926;2023-04-15T04:16:38;19.50;46.21
65239;SHT30;51827;51.186;6.926;2023-04-15T04:17:39;19.52;46.22
65239;SHT30;51827;51.186;6.926;2023-04-15T04:18:39;19.52;46.18
65239;SHT30;51827;51.186;6.926;2023-04-15T04:19:39;19.52;46.18
65239;SHT30;51827;51.186;6.926;2023-04-15T04:20:40;19.52;46.20
65239;SHT30;51827;51.186;6.926;2023-04-15T04:21:40;19.50;46.19
65239;SHT30;51827;51.186;6.926;2023-04-15T04:22:41;19.49;46.20
65239;SHT30;51827;51.186;6.926;2023-04-15T04:23:41;19.47;46.23
65239;SHT30;51827;51.186;6.926;2023-04-15T04:24:41;19.49;46.24
65239;SHT30;51827;51.186;6.926;2023-04-15T04:25:41;19.47;46.22
65239;SHT30;51827;51.186;6.926;2023-04-15T04:26:42;19.52;46.21
65239;SHT30;51827;51.186;6.926;2023-04-15T04:27:42;19.52;46.21
65239;SHT30;51827;51.186;6.926;2023-04-15T04:28:42;19.52;46.21
65239;SHT30;51827;51.186;6.926;2023-04-15T04:29:42;19.50;46.25
65239;SHT30;51827;51.186;6.926;2023-04-15T04:30:43;19.49;46.23
65239;SHT30;51827;51.186;6.926;2023-04-15T04:31:43;19.49;46.22
65239;SHT30;51827;51.186;6.926;2023-04-15T04:32:43;19.49;46.27
65239;SHT30;51827;51.186;6.926;2023-04-15T04:33:44;19.50;46.22
65239;SHT30;51827;51.186;6.926;2023-04-15T04:34:44;19.50;46.24
65239;SHT30;51827;51.186;6.926;2023-04-15T04:35:44;19.49;46.22
65239;SHT30;51827;51.186;6.926;2023-04-15T04:36:44;19.49;46.22
65239;SHT30;51827;51.186;6.926;2023-04-15T04:37:45;19.47;46.24
65239;SHT30;51827;51.186;6.926;2023-04-15T04:38:45;19.47;46.21
65239;SHT30;51827;51.186;6.926;2023-04-15T04:39:45;19.47;46.23
65239;SHT30;51827;51.186;6.926;2023-04-15T04:40:45;19.47;46.22
65239;SHT30;51827;51.186;6.926;2023-04-15T04:41:46;19.47;46.24
65239;SHT30;51827;51.186;6.926;2023-04-15T04:42:46;19.47;46.21
65239;SHT30;51827;51.186;6.926;2023-04-15T04:43:46;19.47;46.26
65239;SHT30;51827;51.186;6.926;2023-04-15T04:44:46;19.49;46.20
65239;SHT30;51827;51.186;6.926;2023-04-15T04:45:47;19.49;46.26
65239;SHT30;51827;51.186;6.926;2023-04-15T04:46:47;19.47;46.20
65239;SHT30;51827;51.186;6.926;2023-04-15T04:47:47;19.47;46.23
65239;SHT30;51827;51.186;6.926;2023-04-15T04:48:48;19.49;46.23
65239;SHT30;51827;51.186;6.926;2023-04-15T04:49:48;19.47;46.22
65239;SHT30;51827;51.186;6.926;2023-04-15T04:50:48;19.46;46.25
65239;SHT30;51827;51.186;6.926;2023-04-15T04:51:48;19.46;46.28
65239;SHT30;51827;51.186;6.926;2023-04-15T04:52:49;19.46;46.22
65239;SHT30;51827;51.186;6.926;2023-04-15T04:53:49;19.46;46.23
65239;SHT30;51827;51.186;6.926;2023-04-15T04:54:49;19.46;46.26
65239;SHT30;51827;51.186;6.926;2023-04-15T04:55:49;19.46;46.20
65239;SHT30;51827;51.186;6.926;2023-04-15T04:56:50;19.46;46.26
65239;SHT30;51827;51.186;6.926;2023-04-15T04:57:50;19.46;46.21
65239;SHT30;51827;51.186;6.926;2023-04-15T04:58:50;19.45;46.27
65239;SHT30;51827;51.186;6.926;2023-04-15T04:59:50;19.46;46.24
65239;SHT30;51827;51.186;6.926;2023-04-15T05:00:51;19.46;46.25
65239;SHT30;51827;51.186;6.926;2023-04-15T05:01:51;19.45;46.24
65239;SHT30;51827;51.186;6.926;2023-04-15T05:02:51;19.45;46.19
65239;SHT30;51827;51.186;6.926;2023-04-15T05:03:52;19.46;46.20
65239;SHT30;51827;51.186;6.926;2023-04-15T05:04:52;19.47;46.21
65239;SHT30;51827;51.186;6.926;2023-04-15T05:05:52;19.46;46.15
65239;SHT30;51827;51.186;6.926;2023-04-15T05:06:53;19.45;46.22
65239;SHT30;51827;51.186;6.926;2023-04-15T05:07:53;19.46;46.23
65239;SHT30;51827;51.186;6.926;2023-04-15T05:08:53;19.47;46.19
65239;SHT30;51827;51.186;6.926;2023-04-15T05:09:53;19.46;46.19
65239;SHT30;51827;51.186;6.926;2023-04-15T05:10:53;19.45;46.23
65239;SHT30;51827;51.186;6.926;2023-04-15T05:11:54;19.43;46.18
65239;SHT30;51827;51.186;6.926;2023-04-15T05:12:54;19.42;46.20
65239;SHT30;51827;51.186;6.926;2023-04-15T05:13:54;19.46;46.19
65239;SHT30;51827;51.186;6.926;2023-04-15T05:14:54;19.43;46.19
65239;SHT30;51827;51.186;6.926;2023-04-15T05:15:55;19.45;46.20
65239;SHT30;51827;51.186;6.926;2023-04-15T05:16:55;19.45;46.19
65239;SHT30;51827;51.186;6.926;2023-04-15T05:17:55;19.45;46.18
65239;SHT30;51827;51.186;6.926;2023-04-15T05:18:56;19.46;46.17
65239;SHT30;51827;51.186;6.926;2023-04-15T05:19:56;19.46;46.19
65239;SHT30;51827;51.186;6.926;2023-04-15T05:20:56;19.45;46.22
65239;SHT30;51827;51.186;6.926;2023-04-15T05:21:57;19.43;46.22
65239;SHT30;51827;51.186;6.926;2023-04-15T05:22:57;19.42;46.19
65239;SHT30;51827;51.186;6.926;2023-04-15T05:23:57;19.43;46.20
65239;SHT30;51827;51.186;6.926;2023-04-15T05:24:58;19.42;46.22
65239;SHT30;51827;51.186;6.926;2023-04-15T05:25:58;19.43;46.19
65239;SHT30;51827;51.186;6.926;2023-04-15T05:26:58;19.45;46.20
65239;SHT30;51827;51.186;6.926;2023-04-15T05:27:58;19.43;46.26
65239;SHT30;51827;51.186;6.926;2023-04-15T05:28:59;19.43;46.19
65239;SHT30;51827;51.186;6.926;2023-04-15T05:29:59;19.43;46.18
65239;SHT30;51827;51.186;6.926;2023-04-15T05:30:59;19.42;46.19
65239;SHT30;51827;51.186;6.926;2023-04-15T05:31:59;19.42;46.18
65239;SHT30;51827;51.186;6.926;2023-04-15T05:33:00;19.45;46.17
65239;SHT30;51827;51.186;6.926;2023-04-15T05:34:00;19.42;46.18
65239;SHT30;51827;51.186;6.926;2023-04-15T05:35:00;19.42;46.23
65239;SHT30;51827;51.186;6.926;2023-04-15T05:36:00;19.43;46.29
65239;SHT30;51827;51.186;6.926;2023-04-15T05:37:01;19.42;46.37
65239;SHT30;51827;51.186;6.926;2023-04-15T05:38:01;19.42;46.30
65239;SHT30;51827;51.186;6.926;2023-04-15T05:39:01;19.43;46.24
65239;SHT30;51827;51.186;6.926;2023-04-15T05:40:02;19.43;46.25
65239;SHT30;51827;51.186;6.926;2023-04-15T05:41:02;19.45;46.30
65239;SHT30;51827;51.186;6.926;2023-04-15T05:42:02;19.42;46.25
65239;SHT30;51827;51.186;6.926;2023-04-15T05:43:02;19.43;46.26
65239;SHT30;51827;51.186;6.926;2023-04-15T05:44:03;19.43;46.26
65239;SHT30;51827;51.186;6.926;2023-04-15T05:45:04;19.46;46.23
65239;SHT30;51827;51.186;6.926;2023-04-15T05:46:04;19.42;46.15
65239;SHT30;51827;51.186;6.926;2023-04-15T05:47:04;19.46;46.24
65239;SHT30;51827;51.186;6.926;2023-04-15T05:48:05;19.42;46.24
65239;SHT30;51827;51.186;6.926;2023-04-15T05:49:05;19.43;46.37
65239;SHT30;51827;51.186;6.926;2023-04-15T05:50:05;19.43;46.56
65239;SHT30;51827;51.186;6.926;2023-04-15T05:51:06;19.43;46.65
65239;SHT30;51827;51.186;6.926;2023-04-15T05:52:06;19.45;46.72
65239;SHT30;51827;51.186;6.926;2023-04-15T05:53:07;19.43;46.76
65239;SHT30;51827;51.186;6.926;2023-04-15T05:54:07;19.46;46.78
65239;SHT30;51827;51.186;6.926;2023-04-15T05:55:08;19.47;46.77
65239;SHT30;51827;51.186;6.926;2023-04-15T05:56:08;19.45;46.82
65239;SHT30;51827;51.186;6.926;2023-04-15T05:57:08;19.43;46.78
65239;SHT30;51827;51.186;6.926;2023-04-15T05:58:09;19.49;46.75
65239;SHT30;51827;51.186;6.926;2023-04-15T05:59:09;19.45;46.70
65239;SHT30;51827;51.186;6.926;2023-04-15T06:00:10;19.45;46.71
65239;SHT30;51827;51.186;6.926;2023-04-15T06:01:10;19.47;46.68
65239;SHT30;51827;51.186;6.926;2023-04-15T06:02:11;19.46;46.69
65239;SHT30;51827;51.186;6.926;2023-04-15T06:03:11;19.47;46.65
65239;SHT30;51827;51.186;6.926;2023-04-15T06:04:11;19.49;46.67
65239;SHT30;51827;51.186;6.926;2023-04-15T06:05:11;19.47;46.61
65239;SHT30;51827;51.186;6.926;2023-04-15T06:06:12;19.46;46.64
65239;SHT30;51827;51.186;6.926;2023-04-15T06:07:12;19.46;46.60
65239;SHT30;51827;51.186;6.926;2023-04-15T06:08:12;19.45;46.64
65239;SHT30;51827;51.186;6.926;2023-04-15T06:09:12;19.45;46.64
65239;SHT30;51827;51.186;6.926;2023-04-15T06:10:13;19.47;46.60
65239;SHT30;51827;51.186;6.926;2023-04-15T06:11:13;19.46;46.59
65239;SHT30;51827;51.186;6.926;2023-04-15T06:12:14;19.45;46.57
65239;SHT30;51827;51.186;6.926;2023-04-15T06:13:14;19.47;46.56
65239;SHT30;51827;51.186;6.926;2023-04-15T06:14:14;19.45;46.52
65239;SHT30;51827;51.186;6.926;2023-04-15T06:15:14;19.45;46.54
65239;SHT30;51827;51.186;6.926;2023-04-15T06:16:14;19.46;46.54
65239;SHT30;51827;51.186;6.926;2023-04-15T06:17:15;19.46;46.53
65239;SHT30;51827;51.186;6.926;2023-04-15T06:18:15;19.46;46.45
65239;SHT30;51827;51.186;6.926;2023-04-15T06:19:15;19.46;46.49
65239;SHT30;51827;51.186;6.926;2023-04-15T06:20:16;19.46;46.52
65239;SHT30;51827;51.186;6.926;2023-04-15T06:21:16;19.45;46.51
65239;SHT30;51827;51.186;6.926;2023-04-15T06:22:16;19.45;46.48